NCAR-RAP Real-Time Weather Data

Output produced by METARs form (23 June 2018  19:28 UTC)
found at http://weather.rap.ucar.edu/surface/
 
 
ROAH 231900Z 20010KT 9999 FEW010 28/26 Q1010 RMK 1CU010 A2983
 
RODN 231856Z AUTO 18013G17KT 10SM CLR 28/26 A2983 RMK AO2 SLP106 T02770257 $